Time;durP1;ratioP1;P1;durP2;ratioP2;P2;SDS_P1;SDS_P2;PMS_P1;PMS_P2;Temp;Humidity;BMP_temperature;BMP_pressure;BME280_temperature;BME280_humidity;BME280_pressure;Samples;Min_cycle;Max_cycle;Signal;HPM_P1;HPM_P2
2022/08/12 00:46:31;;;;;;;2.4;4.6;;;;;;;12;100;99070;;;;
2022/08/12 00:55:55;;;;;;;2.4;4.6;;;;;;;12;100;99060;;;;
2022/08/12 01:16:55;;;;;;;2.1;4.3;;;;;;;11.8;100;99060;;;;
2022/08/12 01:27:55;;;;;;;2.1;4.3;;;;;;;11.7;100;99050;;;;
2022/08/12 01:37:56;;;;;;;2.8;5.3;;;;;;;11.6;100;99050;;;;
2022/08/12 01:47:56;;;;;;;2.8;5.3;;;;;;;11.6;100;99060;;;;
2022/08/12 02:00:00;;;;;;;2.8;5.3;;;;;;;11.4;100;99060;;;;
2022/08/12 02:20:56;;;;;;;2.8;5.5;;;;;;;11.3;100;99040;;;;
2022/08/12 02:30:55;;;;;;;4;6.1;;;;;;;11.4;100;99030;;;;
2022/08/12 02:40:55;;;;;;;4;6.1;;;;;;;11.3;100;99030;;;;
2022/08/12 02:51:55;;;;;;;4;6.1;;;;;;;11.3;100;99030;;;;
2022/08/12 03:01:55;;;;;;;3.8;7.2;;;;;;;11.3;100;99040;;;;
2022/08/12 03:12:56;;;;;;;3.8;7.2;;;;;;;11.2;100;99030;;;;
2022/08/12 03:23:56;;;;;;;3.8;7.2;;;;;;;11.1;100;99040;;;;
2022/08/12 03:34:56;;;;;;;4;7.2;;;;;;;11.1;100;99030;;;;
2022/08/12 04:06:56;;;;;;;3.8;6.1;;;;;;;11.2;100;99030;;;;
2022/08/12 04:16:55;;;;;;;3.8;6.1;;;;;;;11.4;100;99040;;;;
2022/08/12 04:27:55;;;;;;;3.8;6.1;;;;;;;11.5;100;99030;;;;
2022/08/12 04:38:55;;;;;;;3.8;7.8;;;;;;;11.8;100;99050;;;;
2022/08/12 04:48:56;;;;;;;3.8;7.8;;;;;;;12.1;100;99070;;;;
2022/08/12 04:59:55;;;;;;;5.9;9.1;;;;;;;12.6;100;99060;;;;
2022/08/12 05:09:55;;;;;;;5.9;9.1;;;;;;;13.1;100;99060;;;;
2022/08/12 05:20:57;;;;;;;5.9;9.1;;;;;;;13.2;100;99070;;;;
2022/08/12 05:31:56;;;;;;;6.4;9;;;;;;;13.3;100;99080;;;;
2022/08/12 05:42:55;;;;;;;6.4;9;;;;;;;13.8;100;99080;;;;
2022/08/12 05:52:55;;;;;;;6.4;9;;;;;;;14.2;100;99090;;;;
2022/08/12 06:03:55;;;;;;;6.4;8.8;;;;;;;14.6;100;99100;;;;
2022/08/12 06:13:57;;;;;;;6.4;8.8;;;;;;;15.5;100;99080;;;;
2022/08/12 06:24:55;;;;;;;6.4;8.8;;;;;;;15.9;100;99090;;;;
2022/08/12 06:35:56;;;;;;;7.4;10.6;;;;;;;16.4;100;99090;;;;
2022/08/12 06:45:56;;;;;;;7.4;10.6;;;;;;;16.7;100;99090;;;;
2022/08/12 06:55:56;;;;;;;7.4;10.6;;;;;;;17.1;100;99100;;;;
2022/08/12 07:06:55;;;;;;;7.6;13.1;;;;;;;17.4;100;99100;;;;
2022/08/12 07:17:00;;;;;;;7.6;13.1;;;;;;;17;100;99100;;;;
2022/08/12 07:26:55;;;;;;;7.6;13.1;;;;;;;17.5;100;99100;;;;
2022/08/12 07:37:56;;;;;;;7.3;9.7;;;;;;;18;100;99100;;;;
2022/08/12 07:47:55;;;;;;;7.3;9.7;;;;;;;18.4;100;99080;;;;
2022/08/12 07:58:57;;;;;;;7.3;9.7;;;;;;;18.4;100;99080;;;;
2022/08/12 08:09:57;;;;;;;7.1;9.9;;;;;;;18.9;100;99090;;;;
2022/08/12 08:20:55;;;;;;;7.1;9.9;;;;;;;19.3;100;99090;;;;
2022/08/12 08:30:55;;;;;;;4.8;9.8;;;;;;;19.6;100;99090;;;;
2022/08/12 08:42:59;;;;;;;4.8;9.8;;;;;;;19.8;100;99080;;;;
2022/08/12 08:51:56;;;;;;;4.8;9.8;;;;;;;20.4;100;99080;;;;
2022/08/12 09:02:55;;;;;;;3;5.4;;;;;;;20.2;100;99080;;;;
2022/08/12 09:13:27;;;;;;;3;5.4;;;;;;;20.8;100;99090;;;;
2022/08/12 09:24:00;;;;;;;3;5.4;;;;;;;20.5;100;99100;;;;
2022/08/12 09:34:56;;;;;;;3.7;10.1;;;;;;;20.6;100;99100;;;;
2022/08/12 09:45:27;;;;;;;3.7;10.1;;;;;;;20.6;100;99110;;;;
2022/08/12 09:55:56;;;;;;;3.7;10.1;;;;;;;20.9;100;99100;;;;
2022/08/12 10:06:55;;;;;;;5.2;7.2;;;;;;;21;100;99090;;;;
2022/08/12 10:16:56;;;;;;;5.2;7.2;;;;;;;21.1;100;99090;;;;
2022/08/12 10:37:56;;;;;;;4.3;8.7;;;;;;;21.8;100;99060;;;;
2022/08/12 10:48:56;;;;;;;4.3;8.7;;;;;;;21.9;100;99050;;;;
2022/08/12 10:59:56;;;;;;;3.7;6.9;;;;;;;22;100;99050;;;;
2022/08/12 11:10:56;;;;;;;3.7;6.9;;;;;;;22.6;100;99050;;;;
2022/08/12 11:20:55;;;;;;;3.7;6.9;;;;;;;22.4;100;99030;;;;
2022/08/12 11:31:55;;;;;;;3.5;6.5;;;;;;;22.6;100;99030;;;;
2022/08/12 11:41:55;;;;;;;3.5;6.5;;;;;;;23.1;100;99030;;;;
2022/08/12 11:52:56;;;;;;;3.5;6.5;;;;;;;23.3;100;99020;;;;
2022/08/12 12:03:55;;;;;;;3;4.9;;;;;;;23.6;100;99010;;;;
2022/08/12 12:13:55;;;;;;;3;4.9;;;;;;;23.6;100;99010;;;;
2022/08/12 12:23:56;;;;;;;3;4.9;;;;;;;23.7;100;99010;;;;
2022/08/12 12:34:55;;;;;;;3.1;5.7;;;;;;;24;100;99000;;;;
2022/08/12 12:45:55;;;;;;;3.1;5.7;;;;;;;23.7;100;98990;;;;
2022/08/12 12:55:55;;;;;;;3.1;5.7;;;;;;;24;100;98980;;;;
2022/08/12 13:06:55;;;;;;;4.7;8.3;;;;;;;23.8;100;98970;;;;
2022/08/12 13:17:56;;;;;;;4.7;8.3;;;;;;;24.1;100;98960;;;;
2022/08/12 13:27:55;;;;;;;4.7;8.3;;;;;;;24.5;100;98940;;;;
2022/08/12 13:37:56;;;;;;;4.5;8.2;;;;;;;24.8;100;98940;;;;
2022/08/12 13:48:56;;;;;;;4.5;8.2;;;;;;;24.8;100;98940;;;;
2022/08/12 13:59:55;;;;;;;3.6;7.9;;;;;;;24.9;100;98930;;;;
2022/08/12 14:11:00;;;;;;;3.6;7.9;;;;;;;25.1;100;98920;;;;
2022/08/12 14:20:57;;;;;;;3.6;7.9;;;;;;;25.3;100;98920;;;;
2022/08/12 14:31:58;;;;;;;3.3;6.3;;;;;;;25.2;98;98910;;;;
2022/08/12 14:41:56;;;;;;;3.3;6.3;;;;;;;25.5;96;98910;;;;
2022/08/12 14:52:56;;;;;;;3.3;6.3;;;;;;;25.4;100;98890;;;;
2022/08/12 15:02:56;;;;;;;2.5;5.4;;;;;;;25.8;97.2;98890;;;;
2022/08/12 15:13:57;;;;;;;2.5;5.4;;;;;;;26;100;98870;;;;
2022/08/12 15:24:56;;;;;;;2.5;5.4;;;;;;;28.4;90.3;98880;;;;
2022/08/12 15:34:55;;;;;;;3;5.5;;;;;;;29.5;86.3;98890;;;;
2022/08/12 15:44:56;;;;;;;3;5.5;;;;;;;30.6;81.5;98890;;;;
2022/08/12 15:55:56;;;;;;;3;5.5;;;;;;;31.5;76.6;98880;;;;
2022/08/12 16:05:56;;;;;;;3.2;6.3;;;;;;;30.3;74;98860;;;;
2022/08/12 16:16:56;;;;;;;3.2;6.3;;;;;;;29.2;77.3;98860;;;;
2022/08/12 16:26:56;;;;;;;3.2;6.3;;;;;;;26.9;88.4;98850;;;;
2022/08/12 16:37:56;;;;;;;3.8;6.2;;;;;;;25.7;92.6;98830;;;;
2022/08/12 16:48:56;;;;;;;3.8;6.2;;;;;;;24.8;99.3;98820;;;;
2022/08/12 16:58:58;;;;;;;3.8;6.2;;;;;;;24.3;100;98810;;;;
2022/08/12 17:09:56;;;;;;;4.4;7.8;;;;;;;24.1;100;98790;;;;
2022/08/12 17:20:56;;;;;;;4.4;7.8;;;;;;;24.2;100;98790;;;;
2022/08/12 17:30:58;;;;;;;5;7.2;;;;;;;24;100;98780;;;;
2022/08/12 17:40:56;;;;;;;5;7.2;;;;;;;23.3;100;98790;;;;
2022/08/12 17:51:56;;;;;;;5;7.2;;;;;;;22.7;100;98780;;;;
2022/08/12 18:02:56;;;;;;;4.4;7.3;;;;;;;22.6;100;98780;;;;
2022/08/12 18:12:56;;;;;;;4.4;7.3;;;;;;;22.2;100;98780;;;;
2022/08/12 18:23:56;;;;;;;4.4;7.3;;;;;;;21.6;100;98780;;;;
2022/08/12 18:33:56;;;;;;;4.2;7;;;;;;;21.5;100;98780;;;;
2022/08/12 18:44:00;;;;;;;4.2;7;;;;;;;21.2;100;98780;;;;
2022/08/12 18:53:56;;;;;;;4.2;7;;;;;;;21;100;98780;;;;
2022/08/12 19:03:56;;;;;;;4.8;7.6;;;;;;;20.8;100;98780;;;;
2022/08/12 19:14:59;;;;;;;4.8;7.6;;;;;;;20.6;100;98790;;;;
2022/08/12 19:25:29;;;;;;;4.8;7.6;;;;;;;20.2;100;98790;;;;
2022/08/12 19:35:59;;;;;;;14.9;18.3;;;;;;;19.8;100;98780;;;;
2022/08/12 19:45:56;;;;;;;14.9;18.3;;;;;;;19.7;100;98790;;;;
2022/08/12 19:56:57;;;;;;;14.9;18.3;;;;;;;19.8;100;98790;;;;
2022/08/12 20:06:58;;;;;;;16;20.5;;;;;;;19.8;100;98800;;;;
2022/08/12 20:17:00;;;;;;;16;20.5;;;;;;;19.7;100;98800;;;;
2022/08/12 20:27:56;;;;;;;16;20.5;;;;;;;19.6;100;98810;;;;
2022/08/12 20:38:57;;;;;;;12;17.2;;;;;;;19.4;100;98810;;;;
2022/08/12 20:48:56;;;;;;;12;17.2;;;;;;;19.1;100;98790;;;;
2022/08/12 20:59:56;;;;;;;9.1;12.2;;;;;;;18.9;100;98800;;;;
2022/08/12 21:10:56;;;;;;;9.1;12.2;;;;;;;18.6;100;98800;;;;
2022/08/12 21:20:57;;;;;;;9.1;12.2;;;;;;;18.3;100;98810;;;;
2022/08/12 21:30:56;;;;;;;8.6;12.3;;;;;;;18.3;100;98810;;;;
2022/08/12 21:41:59;;;;;;;8.6;12.3;;;;;;;18.1;100;98810;;;;
2022/08/12 21:51:56;;;;;;;8.6;12.3;;;;;;;18;100;98800;;;;
2022/08/12 22:01:56;;;;;;;9.4;13;;;;;;;18;100;98800;;;;
2022/08/12 22:11:58;;;;;;;9.4;13;;;;;;;17.8;100;98790;;;;
2022/08/12 22:22:58;;;;;;;9.4;13;;;;;;;17.7;100;98790;;;;
2022/08/12 22:33:57;;;;;;;8.3;11.9;;;;;;;17.6;100;98780;;;;
2022/08/12 22:54:57;;;;;;;8.3;11.9;;;;;;;17.3;100;98780;;;;
2022/08/12 23:05:56;;;;;;;8.6;12.3;;;;;;;17.3;100;98760;;;;
2022/08/12 23:16:56;;;;;;;8.6;12.3;;;;;;;17.3;100;98740;;;;
2022/08/12 23:37:56;;;;;;;9.1;12.1;;;;;;;17.4;100;98730;;;;
2022/08/12 23:48:58;;;;;;;9.1;12.1;;;;;;;17.5;100;98720;;;;
2022/08/12 23:58:56;;;;;;;9.1;12.1;;;;;;;17.6;100;98710;;;;
